createdAt,value
2022-10-09T00:00:32.116Z,91
2022-10-09T00:01:32.092Z,91
2022-10-09T00:02:32.204Z,91
2022-10-09T00:03:32.126Z,91
2022-10-09T00:04:32.145Z,91
2022-10-09T00:05:32.169Z,91
2022-10-09T00:06:32.154Z,91
2022-10-09T00:07:32.111Z,91
2022-10-09T00:08:32.129Z,91
2022-10-09T00:09:32.087Z,91
2022-10-09T00:10:32.114Z,91
2022-10-09T00:11:32.124Z,91
2022-10-09T00:12:32.116Z,91
2022-10-09T00:13:32.106Z,91
2022-10-09T00:14:32.100Z,91
2022-10-09T00:15:32.127Z,91
2022-10-09T00:16:32.408Z,91
2022-10-09T00:17:32.090Z,91
2022-10-09T00:18:32.128Z,91
2022-10-09T00:19:32.116Z,91
2022-10-09T00:20:32.120Z,91
2022-10-09T00:21:32.095Z,91
2022-10-09T00:22:32.132Z,91
2022-10-09T00:23:32.119Z,91
2022-10-09T00:24:32.116Z,91
2022-10-09T00:25:32.100Z,91
2022-10-09T00:26:32.129Z,91
2022-10-09T00:27:32.117Z,91
2022-10-09T00:28:36.472Z,91
2022-10-09T00:29:32.110Z,91
2022-10-09T00:30:32.210Z,91
2022-10-09T00:31:32.133Z,92
2022-10-09T00:32:32.111Z,91
2022-10-09T00:33:32.096Z,91
2022-10-09T00:34:32.140Z,91
2022-10-09T00:35:32.111Z,91
2022-10-09T00:36:32.138Z,91
2022-10-09T00:37:32.105Z,91
2022-10-09T00:38:32.121Z,91
2022-10-09T00:39:32.122Z,91
2022-10-09T00:40:32.123Z,91
2022-10-09T00:41:32.089Z,91
2022-10-09T00:42:32.116Z,91
2022-10-09T00:43:32.122Z,91
2022-10-09T00:44:32.128Z,91
2022-10-09T00:45:32.071Z,91
2022-10-09T00:46:32.186Z,91
2022-10-09T00:47:32.112Z,91
2022-10-09T00:48:32.126Z,91
2022-10-09T00:49:32.083Z,91
2022-10-09T00:50:32.133Z,91
2022-10-09T00:51:32.115Z,91
2022-10-09T00:52:32.111Z,91
2022-10-09T00:53:32.054Z,91
2022-10-09T00:54:32.123Z,91
2022-10-09T00:55:32.115Z,91
2022-10-09T00:56:32.078Z,91
2022-10-09T00:57:32.107Z,91
2022-10-09T00:58:32.122Z,91
2022-10-09T00:59:32.143Z,91
2022-10-09T01:00:32.117Z,91
2022-10-09T01:01:32.162Z,91
2022-10-09T01:02:32.189Z,91
2022-10-09T01:03:32.110Z,91
2022-10-09T01:04:32.110Z,91
2022-10-09T01:05:32.125Z,91
2022-10-09T01:06:32.125Z,91
2022-10-09T01:07:32.091Z,91
2022-10-09T01:08:32.083Z,91
2022-10-09T01:09:32.124Z,91
2022-10-09T01:10:32.157Z,91
2022-10-09T01:11:32.158Z,91
2022-10-09T01:12:32.074Z,91
2022-10-09T01:13:32.181Z,91
2022-10-09T01:14:32.112Z,91
2022-10-09T01:15:32.186Z,91
2022-10-09T01:16:32.103Z,91
2022-10-09T01:17:32.103Z,91
2022-10-09T01:18:32.085Z,91
2022-10-09T01:19:32.141Z,91
2022-10-09T01:20:32.092Z,91
2022-10-09T01:21:32.097Z,91
2022-10-09T01:22:32.124Z,91
2022-10-09T01:23:32.101Z,91
2022-10-09T01:24:32.096Z,91
2022-10-09T01:25:32.128Z,91
2022-10-09T01:26:32.996Z,91
2022-10-09T01:27:32.123Z,91
2022-10-09T01:28:32.116Z,91
2022-10-09T01:29:32.093Z,91
2022-10-09T01:30:32.085Z,91
2022-10-09T01:31:32.204Z,91
2022-10-09T01:32:32.099Z,91
2022-10-09T01:33:32.112Z,91
2022-10-09T01:34:32.141Z,91
2022-10-09T01:35:32.160Z,91
2022-10-09T01:36:32.109Z,91
2022-10-09T01:37:32.157Z,91
2022-10-09T01:38:32.141Z,91
2022-10-09T01:39:32.153Z,91
2022-10-09T01:40:32.215Z,91
2022-10-09T01:41:32.231Z,91
2022-10-09T01:42:32.257Z,91
2022-10-09T01:43:32.261Z,91
2022-10-09T01:44:32.178Z,91
2022-10-09T01:45:32.215Z,91
2022-10-09T01:46:32.377Z,91
2022-10-09T01:47:32.209Z,91
2022-10-09T01:48:32.324Z,91
2022-10-09T01:49:32.128Z,91
2022-10-09T01:50:32.120Z,91
2022-10-09T01:51:32.120Z,91
2022-10-09T01:52:32.074Z,91
2022-10-09T01:53:32.104Z,91
2022-10-09T01:54:32.068Z,91
2022-10-09T01:55:32.119Z,91
2022-10-09T01:56:32.137Z,91
2022-10-09T01:57:32.117Z,91
2022-10-09T01:58:32.094Z,91
2022-10-09T01:59:32.127Z,91
2022-10-09T02:00:32.137Z,91
2022-10-09T02:01:32.173Z,91
2022-10-09T02:02:32.124Z,91
2022-10-09T02:03:32.078Z,91
2022-10-09T02:04:32.106Z,91
2022-10-09T02:05:32.156Z,91
2022-10-09T02:06:32.090Z,91
2022-10-09T02:07:32.131Z,91
2022-10-09T02:08:32.119Z,91
2022-10-09T02:09:32.115Z,91
2022-10-09T02:10:32.098Z,91
2022-10-09T02:11:32.140Z,91
2022-10-09T02:12:32.123Z,91
2022-10-09T02:13:32.110Z,91
2022-10-09T02:14:32.089Z,91
2022-10-09T02:15:32.159Z,91
2022-10-09T02:16:36.823Z,92
2022-10-09T02:17:32.107Z,92
2022-10-09T02:18:32.093Z,92
2022-10-09T02:19:32.127Z,92
2022-10-09T02:20:32.111Z,92
2022-10-09T02:21:32.109Z,92
2022-10-09T02:22:32.122Z,92
2022-10-09T02:23:32.084Z,92
2022-10-09T02:24:32.117Z,92
2022-10-09T02:25:32.122Z,92
2022-10-09T02:26:32.089Z,92
2022-10-09T02:27:32.090Z,92
2022-10-09T02:28:32.178Z,92
2022-10-09T02:29:32.125Z,92
2022-10-09T02:30:32.115Z,92
2022-10-09T02:31:32.222Z,92
2022-10-09T02:32:32.104Z,92
2022-10-09T02:33:32.114Z,92
2022-10-09T02:34:32.082Z,92
2022-10-09T02:35:32.108Z,92
2022-10-09T02:36:32.205Z,92
2022-10-09T02:37:32.091Z,92
2022-10-09T02:38:32.075Z,92
2022-10-09T02:39:32.131Z,92
2022-10-09T02:40:32.082Z,92
2022-10-09T02:41:32.105Z,92
2022-10-09T02:42:32.073Z,92
2022-10-09T02:43:32.103Z,92
2022-10-09T02:44:32.118Z,92
2022-10-09T02:45:32.099Z,92
2022-10-09T02:46:32.163Z,92
2022-10-09T02:47:32.214Z,92
2022-10-09T02:48:32.093Z,92
2022-10-09T02:49:32.129Z,92
2022-10-09T02:50:32.089Z,92
2022-10-09T02:51:32.096Z,92
2022-10-09T02:52:32.129Z,92
2022-10-09T02:53:32.061Z,92
2022-10-09T02:54:32.090Z,92
2022-10-09T02:55:32.106Z,93
2022-10-09T02:56:35.528Z,93
2022-10-09T02:57:32.106Z,93
2022-10-09T02:58:32.104Z,93
2022-10-09T02:59:32.090Z,93
2022-10-09T03:00:32.074Z,93
2022-10-09T03:01:32.196Z,93
2022-10-09T03:02:32.425Z,93
2022-10-09T03:03:32.103Z,93
2022-10-09T03:04:32.121Z,93
2022-10-09T03:05:32.111Z,93
2022-10-09T03:06:32.068Z,93
2022-10-09T03:07:32.121Z,93
2022-10-09T03:08:32.221Z,93
2022-10-09T03:09:33.850Z,93
2022-10-09T03:10:32.185Z,93
2022-10-09T03:11:32.257Z,93
2022-10-09T03:12:32.248Z,93
2022-10-09T03:13:32.224Z,93
2022-10-09T03:14:32.231Z,93
2022-10-09T03:15:32.368Z,93
2022-10-09T03:16:32.180Z,93
2022-10-09T03:17:32.186Z,93
2022-10-09T03:18:32.111Z,93
2022-10-09T03:19:32.125Z,93
2022-10-09T03:20:32.301Z,93
2022-10-09T03:21:32.225Z,93
2022-10-09T03:22:32.183Z,93
2022-10-09T03:23:32.196Z,93
2022-10-09T03:24:32.227Z,93
2022-10-09T03:25:32.254Z,93
2022-10-09T03:26:32.064Z,93
2022-10-09T03:27:32.246Z,93
2022-10-09T03:28:32.327Z,93
2022-10-09T03:29:32.157Z,93
2022-10-09T03:30:32.263Z,93
2022-10-09T03:31:51.944Z,93
2022-10-09T03:32:32.383Z,93
2022-10-09T03:33:32.114Z,93
2022-10-09T03:34:32.077Z,93
2022-10-09T03:35:32.090Z,93
2022-10-09T03:36:32.077Z,93
2022-10-09T03:37:32.110Z,94
2022-10-09T03:38:32.050Z,94
2022-10-09T03:39:32.105Z,94
2022-10-09T03:40:32.327Z,94
2022-10-09T03:41:32.231Z,94
2022-10-09T03:42:32.178Z,94
2022-10-09T03:43:32.087Z,94
2022-10-09T03:44:32.149Z,94
2022-10-09T03:45:32.098Z,94
2022-10-09T03:46:32.165Z,94
2022-10-09T03:47:32.338Z,93
2022-10-09T03:48:32.268Z,93
2022-10-09T03:49:32.092Z,93
2022-10-09T03:50:32.070Z,93
2022-10-09T03:51:32.104Z,93
2022-10-09T03:52:32.093Z,93
2022-10-09T03:53:32.074Z,93
2022-10-09T03:54:32.106Z,93
2022-10-09T03:55:32.106Z,93
2022-10-09T03:56:32.081Z,93
2022-10-09T03:57:32.089Z,93
2022-10-09T03:58:32.223Z,93
2022-10-09T03:59:32.113Z,93
2022-10-09T04:00:32.159Z,93
2022-10-09T04:01:32.087Z,93
2022-10-09T04:02:32.165Z,93
2022-10-09T04:03:32.093Z,93
2022-10-09T04:04:32.089Z,93
2022-10-09T04:05:32.098Z,93
2022-10-09T04:06:32.096Z,93
2022-10-09T04:07:32.083Z,93
2022-10-09T04:08:32.071Z,93
2022-10-09T04:09:32.115Z,93
2022-10-09T04:10:32.113Z,93
2022-10-09T04:11:32.098Z,93
2022-10-09T04:12:32.056Z,93
2022-10-09T04:13:32.126Z,93
2022-10-09T04:14:32.200Z,93
2022-10-09T04:15:32.112Z,94
2022-10-09T04:16:32.207Z,94
2022-10-09T04:17:32.131Z,94
2022-10-09T04:18:32.119Z,94
2022-10-09T04:19:32.098Z,94
2022-10-09T04:20:32.090Z,94
2022-10-09T04:21:32.104Z,94
2022-10-09T04:22:32.098Z,94
2022-10-09T04:23:32.096Z,94
2022-10-09T04:24:32.067Z,94
2022-10-09T04:25:32.189Z,94
2022-10-09T04:26:32.111Z,94
2022-10-09T04:27:32.106Z,94
2022-10-09T04:28:32.253Z,94
2022-10-09T04:29:32.115Z,94
2022-10-09T04:30:32.186Z,94
2022-10-09T04:31:32.166Z,94
2022-10-09T04:32:32.056Z,94
2022-10-09T04:33:32.071Z,94
2022-10-09T04:34:32.088Z,94
2022-10-09T04:35:32.085Z,94
2022-10-09T04:36:32.079Z,94
2022-10-09T04:37:32.112Z,94
2022-10-09T04:38:32.147Z,94
2022-10-09T04:39:32.068Z,94
2022-10-09T04:40:32.058Z,94
2022-10-09T04:41:35.982Z,94
2022-10-09T04:42:32.116Z,94
2022-10-09T04:43:32.063Z,94
2022-10-09T04:44:32.047Z,94
2022-10-09T04:45:32.155Z,94
2022-10-09T04:46:32.091Z,94
2022-10-09T04:47:32.096Z,94
2022-10-09T04:48:32.056Z,94
2022-10-09T04:49:32.110Z,94
2022-10-09T04:50:32.197Z,94
2022-10-09T04:51:32.084Z,94
2022-10-09T04:52:32.040Z,94
2022-10-09T04:53:32.089Z,94
2022-10-09T04:54:32.097Z,94
2022-10-09T04:55:32.101Z,94
2022-10-09T04:56:32.058Z,94
2022-10-09T04:57:32.089Z,95
2022-10-09T04:58:32.093Z,95
2022-10-09T04:59:32.107Z,95
2022-10-09T05:00:32.075Z,95
2022-10-09T05:01:37.231Z,95
2022-10-09T05:02:32.173Z,95
2022-10-09T05:03:32.105Z,95
2022-10-09T05:04:32.069Z,95
2022-10-09T05:05:32.111Z,95
2022-10-09T05:06:32.065Z,95
2022-10-09T05:07:32.226Z,95
2022-10-09T05:08:32.062Z,95
2022-10-09T05:09:32.090Z,95
2022-10-09T05:10:32.188Z,95
2022-10-09T05:11:32.092Z,95
2022-10-09T05:12:32.055Z,95
2022-10-09T05:13:32.163Z,95
2022-10-09T05:14:32.107Z,95
2022-10-09T05:15:32.130Z,95
2022-10-09T05:16:33.678Z,95
2022-10-09T05:17:32.162Z,95
2022-10-09T05:18:32.112Z,95
2022-10-09T05:19:32.121Z,95
2022-10-09T05:20:32.066Z,95
2022-10-09T05:21:32.099Z,95
2022-10-09T05:22:32.257Z,95
2022-10-09T05:23:32.109Z,95
2022-10-09T05:24:32.081Z,95
2022-10-09T05:25:32.090Z,95
2022-10-09T05:26:32.108Z,95
2022-10-09T05:27:32.109Z,95
2022-10-09T05:28:32.126Z,95
2022-10-09T05:29:32.103Z,95
2022-10-09T05:30:32.552Z,95
2022-10-09T05:31:32.129Z,95
2022-10-09T05:32:32.078Z,95
2022-10-09T05:33:32.062Z,95
2022-10-09T05:34:32.096Z,95
2022-10-09T05:35:32.134Z,95
2022-10-09T05:36:32.062Z,95
2022-10-09T05:37:32.098Z,95
2022-10-09T05:38:32.118Z,95
2022-10-09T05:39:32.083Z,95
2022-10-09T05:40:32.053Z,95
2022-10-09T05:41:32.140Z,95
2022-10-09T05:42:32.097Z,95
2022-10-09T05:43:32.083Z,95
2022-10-09T05:44:32.050Z,95
2022-10-09T05:45:32.123Z,95
2022-10-09T05:46:32.081Z,95
2022-10-09T05:47:32.081Z,95
2022-10-09T05:48:32.065Z,95
2022-10-09T05:49:32.104Z,95
2022-10-09T05:50:32.098Z,95
2022-10-09T05:51:32.089Z,95
2022-10-09T05:52:32.070Z,95
2022-10-09T05:53:32.072Z,95
2022-10-09T05:54:32.162Z,95
2022-10-09T05:55:32.065Z,95
2022-10-09T05:56:32.082Z,95
2022-10-09T05:57:32.089Z,95
2022-10-09T05:58:32.087Z,95
2022-10-09T05:59:32.090Z,95
2022-10-09T06:00:32.063Z,95
2022-10-09T06:01:32.147Z,95
2022-10-09T06:02:32.140Z,95
2022-10-09T06:03:32.213Z,95
2022-10-09T06:04:32.077Z,95
2022-10-09T06:05:32.057Z,95
2022-10-09T06:06:32.086Z,95
2022-10-09T06:07:32.121Z,95
2022-10-09T06:08:32.099Z,95
2022-10-09T06:09:32.073Z,95
2022-10-09T06:10:32.606Z,95
2022-10-09T06:11:32.074Z,95
2022-10-09T06:12:32.083Z,95
2022-10-09T06:13:32.050Z,95
2022-10-09T06:14:32.282Z,95
2022-10-09T06:15:32.093Z,95
2022-10-09T06:16:32.143Z,95
2022-10-09T06:17:32.041Z,95
2022-10-09T06:18:32.075Z,95
2022-10-09T06:19:32.083Z,94
2022-10-09T06:20:32.081Z,94
2022-10-09T06:21:32.088Z,94
2022-10-09T06:22:32.102Z,94
2022-10-09T06:23:32.098Z,94
2022-10-09T06:24:32.077Z,94
2022-10-09T06:25:32.089Z,94
2022-10-09T06:26:32.237Z,94
2022-10-09T06:27:32.130Z,94
2022-10-09T06:28:32.131Z,94
2022-10-09T06:29:32.056Z,93
2022-10-09T06:30:37.745Z,93
2022-10-09T06:31:32.108Z,93
2022-10-09T06:32:32.088Z,93
2022-10-09T06:33:32.058Z,93
2022-10-09T06:34:32.114Z,92
2022-10-09T06:35:32.071Z,92
2022-10-09T06:36:32.103Z,92
2022-10-09T06:37:32.058Z,92
2022-10-09T06:38:32.138Z,92
2022-10-09T06:39:32.093Z,91
2022-10-09T06:40:32.094Z,91
2022-10-09T06:41:32.160Z,91
2022-10-09T06:42:33.975Z,91
2022-10-09T06:43:45.291Z,91
2022-10-09T06:44:49.292Z,91
2022-10-09T06:45:53.273Z,90
2022-10-09T06:46:57.303Z,90
2022-10-09T06:48:01.283Z,90
2022-10-09T06:49:05.312Z,90
2022-10-09T06:50:09.278Z,90
2022-10-09T06:51:13.301Z,90
2022-10-09T06:52:17.282Z,90
2022-10-09T06:53:21.314Z,90
2022-10-09T06:54:25.360Z,90
2022-10-09T06:55:29.292Z,90
2022-10-09T06:56:32.064Z,90
2022-10-09T06:57:32.094Z,90
2022-10-09T06:58:32.141Z,90
2022-10-09T06:59:32.084Z,90
2022-10-09T07:00:32.074Z,90
2022-10-09T07:01:32.426Z,90
2022-10-09T07:02:32.185Z,89
2022-10-09T07:03:32.048Z,89
2022-10-09T07:04:32.051Z,89
2022-10-09T07:05:32.080Z,89
2022-10-09T07:06:32.107Z,88
2022-10-09T07:07:32.093Z,88
2022-10-09T07:08:32.069Z,87
2022-10-09T07:09:32.082Z,86
2022-10-09T07:10:32.103Z,85
2022-10-09T07:11:32.183Z,84
2022-10-09T07:12:32.073Z,83
2022-10-09T07:13:32.099Z,82
2022-10-09T07:14:32.101Z,81
2022-10-09T07:15:32.203Z,80
2022-10-09T07:16:32.058Z,79
2022-10-09T07:17:32.103Z,78
2022-10-09T07:18:32.064Z,78
2022-10-09T07:19:32.083Z,78
2022-10-09T07:20:32.059Z,78
2022-10-09T07:21:32.083Z,77
2022-10-09T07:22:32.078Z,76
2022-10-09T07:23:32.059Z,76
2022-10-09T07:24:32.108Z,76
2022-10-09T07:25:32.098Z,77
2022-10-09T07:26:32.169Z,76
2022-10-09T07:27:32.038Z,76
2022-10-09T07:28:32.129Z,75
2022-10-09T07:29:32.051Z,74
2022-10-09T07:30:32.108Z,75
2022-10-09T07:31:32.136Z,74
2022-10-09T07:32:32.059Z,74
2022-10-09T07:33:32.066Z,73
2022-10-09T07:34:32.084Z,72
2022-10-09T07:35:33.010Z,72
2022-10-09T07:36:33.276Z,71
2022-10-09T07:37:37.222Z,71
2022-10-09T07:38:41.259Z,71
2022-10-09T07:39:45.276Z,70
2022-10-09T07:40:49.270Z,70
2022-10-09T07:41:53.210Z,70
2022-10-09T07:42:57.270Z,70
2022-10-09T07:44:01.264Z,70
2022-10-09T07:45:05.370Z,69
2022-10-09T07:46:09.299Z,69
2022-10-09T07:47:13.246Z,70
2022-10-09T07:48:17.273Z,69
2022-10-09T07:49:21.263Z,68
2022-10-09T07:50:25.316Z,69
2022-10-09T07:51:29.305Z,68
2022-10-09T07:52:32.065Z,68
2022-10-09T07:53:35.822Z,68
2022-10-09T07:54:32.071Z,69
2022-10-09T07:55:32.166Z,69
2022-10-09T07:56:32.067Z,69
2022-10-09T07:57:32.088Z,68
2022-10-09T07:58:32.051Z,67
2022-10-09T07:59:32.094Z,68
2022-10-09T08:00:32.141Z,67
2022-10-09T08:01:32.113Z,67
2022-10-09T08:02:32.118Z,66
2022-10-09T08:03:32.065Z,66
2022-10-09T08:04:32.067Z,66
2022-10-09T08:05:32.062Z,66
2022-10-09T08:06:32.035Z,65
2022-10-09T08:07:34.925Z,64
2022-10-09T08:08:32.088Z,65
2022-10-09T08:09:32.094Z,65
2022-10-09T08:10:32.036Z,65
2022-10-09T08:11:32.186Z,64
2022-10-09T08:12:32.108Z,64
2022-10-09T08:13:32.081Z,64
2022-10-09T08:14:32.040Z,64
2022-10-09T08:15:32.169Z,64
2022-10-09T08:16:32.084Z,64
2022-10-09T08:17:32.065Z,63
2022-10-09T08:18:32.048Z,65
2022-10-09T08:19:32.101Z,63
2022-10-09T08:20:32.087Z,63
2022-10-09T08:21:32.080Z,64
2022-10-09T08:22:32.054Z,65
2022-10-09T08:23:32.079Z,64
2022-10-09T08:24:32.055Z,64
2022-10-09T08:25:32.063Z,64
2022-10-09T08:26:32.078Z,66
2022-10-09T08:27:32.081Z,66
2022-10-09T08:28:32.171Z,65
2022-10-09T08:29:33.795Z,64
2022-10-09T08:30:32.059Z,64
2022-10-09T08:31:32.288Z,64
2022-10-09T08:32:32.070Z,64
2022-10-09T08:33:32.054Z,64
2022-10-09T08:34:32.050Z,64
2022-10-09T08:35:34.525Z,65
2022-10-09T08:36:32.070Z,65
2022-10-09T08:37:32.079Z,64
2022-10-09T08:38:46.610Z,63
2022-10-09T08:39:32.078Z,64
2022-10-09T08:40:32.105Z,63
2022-10-09T08:41:32.111Z,63
2022-10-09T08:42:32.043Z,63
2022-10-09T08:43:32.070Z,62
2022-10-09T08:44:32.065Z,62
2022-10-09T08:45:32.077Z,61
2022-10-09T08:46:32.070Z,62
2022-10-09T08:47:32.140Z,62
2022-10-09T08:48:32.061Z,63
2022-10-09T08:49:32.075Z,63
2022-10-09T08:50:32.026Z,62
2022-10-09T08:51:32.074Z,62
2022-10-09T08:52:32.168Z,61
2022-10-09T08:53:32.060Z,60
2022-10-09T08:54:32.066Z,60
2022-10-09T08:55:32.054Z,60
2022-10-09T08:56:32.058Z,59
2022-10-09T08:57:32.037Z,59
2022-10-09T08:58:32.091Z,60
2022-10-09T08:59:32.043Z,60
2022-10-09T09:00:32.056Z,59
2022-10-09T09:01:32.104Z,60
2022-10-09T09:02:32.132Z,59
2022-10-09T09:03:32.067Z,58
2022-10-09T09:04:32.071Z,58
2022-10-09T09:05:32.044Z,57
2022-10-09T09:06:32.087Z,57
2022-10-09T09:07:32.159Z,58
2022-10-09T09:08:32.062Z,58
2022-10-09T09:09:32.067Z,58
2022-10-09T09:10:32.038Z,59
2022-10-09T09:11:32.056Z,60
2022-10-09T09:12:32.053Z,61
2022-10-09T09:13:32.052Z,60
2022-10-09T09:14:32.091Z,60
2022-10-09T09:15:32.048Z,59
2022-10-09T09:16:32.094Z,59
2022-10-09T09:17:32.092Z,59
2022-10-09T09:18:32.109Z,57
2022-10-09T09:19:32.079Z,57
2022-10-09T09:20:32.074Z,58
2022-10-09T09:21:32.029Z,58
2022-10-09T09:22:32.056Z,58
2022-10-09T09:23:32.056Z,58
2022-10-09T09:24:32.179Z,58
2022-10-09T09:25:32.030Z,59
2022-10-09T09:26:32.062Z,58
2022-10-09T09:27:32.169Z,57
2022-10-09T09:28:32.098Z,57
2022-10-09T09:29:32.030Z,58
2022-10-09T09:30:32.065Z,58
2022-10-09T09:31:32.152Z,58
2022-10-09T09:32:32.067Z,58
2022-10-09T09:33:36.155Z,57
2022-10-09T09:34:32.058Z,57
2022-10-09T09:35:32.132Z,57
2022-10-09T09:36:32.067Z,58
2022-10-09T09:37:32.059Z,58
2022-10-09T09:38:32.064Z,57
2022-10-09T09:40:36.743Z,57
2022-10-09T09:41:32.074Z,56
2022-10-09T09:42:32.061Z,57
2022-10-09T09:43:32.113Z,57
2022-10-09T09:44:32.093Z,57
2022-10-09T09:45:32.035Z,57
2022-10-09T09:46:32.167Z,57
2022-10-09T09:47:32.061Z,56
2022-10-09T09:48:32.071Z,56
2022-10-09T09:49:32.028Z,55
2022-10-09T09:50:47.123Z,54
2022-10-09T09:51:32.120Z,54
2022-10-09T09:52:32.077Z,54
2022-10-09T09:53:32.016Z,54
2022-10-09T09:54:32.171Z,53
2022-10-09T09:55:32.057Z,54
2022-10-09T09:56:47.804Z,53
2022-10-09T09:57:32.168Z,53
2022-10-09T09:58:32.057Z,54
2022-10-09T09:59:32.061Z,54
2022-10-09T10:00:32.172Z,53
2022-10-09T10:01:32.101Z,53
2022-10-09T10:02:32.093Z,54
2022-10-09T10:03:32.073Z,53
2022-10-09T10:04:32.053Z,53
2022-10-09T10:05:32.068Z,53
2022-10-09T10:06:32.071Z,52
2022-10-09T10:07:32.054Z,53
2022-10-09T10:08:32.034Z,53
2022-10-09T10:09:32.069Z,53
2022-10-09T10:10:32.051Z,52
2022-10-09T10:11:32.049Z,52
2022-10-09T10:12:32.035Z,49
2022-10-09T10:13:32.173Z,50
2022-10-09T10:14:32.061Z,50
2022-10-09T10:15:32.201Z,51
2022-10-09T10:16:32.158Z,51
2022-10-09T10:17:32.195Z,51
2022-10-09T10:18:32.062Z,52
2022-10-09T10:19:32.050Z,51
2022-10-09T10:20:32.043Z,51
2022-10-09T10:21:32.064Z,51
2022-10-09T10:22:32.081Z,52
2022-10-09T10:23:32.062Z,51
2022-10-09T10:24:32.241Z,52
2022-10-09T10:25:32.045Z,52
2022-10-09T10:26:32.156Z,52
2022-10-09T10:27:32.050Z,52
2022-10-09T10:28:32.091Z,52
2022-10-09T10:29:32.043Z,52
2022-10-09T10:30:32.040Z,53
2022-10-09T10:31:32.135Z,52
2022-10-09T10:32:32.037Z,52
2022-10-09T10:33:32.064Z,52
2022-10-09T10:34:32.049Z,52
2022-10-09T10:35:32.047Z,53
2022-10-09T10:36:32.032Z,53
2022-10-09T10:37:32.067Z,52
2022-10-09T10:38:32.053Z,52
2022-10-09T10:39:32.069Z,51
2022-10-09T10:40:32.026Z,51
2022-10-09T10:41:32.129Z,51
2022-10-09T10:42:32.048Z,51
2022-10-09T10:43:32.039Z,51
2022-10-09T10:44:32.055Z,50
2022-10-09T10:45:32.075Z,50
2022-10-09T10:46:32.104Z,51
2022-10-09T10:47:32.047Z,51
2022-10-09T10:48:32.013Z,51
2022-10-09T10:49:33.920Z,51
2022-10-09T10:50:32.057Z,51
2022-10-09T10:51:32.055Z,51
2022-10-09T10:52:32.017Z,51
2022-10-09T10:53:32.058Z,50
2022-10-09T10:54:32.092Z,51
2022-10-09T10:55:32.056Z,51
2022-10-09T10:56:32.155Z,51
2022-10-09T10:57:32.033Z,51
2022-10-09T10:58:32.060Z,51
2022-10-09T10:59:32.068Z,51
2022-10-09T11:00:32.165Z,51
2022-10-09T11:01:32.053Z,52
2022-10-09T11:02:32.871Z,52
2022-10-09T11:03:32.101Z,52
2022-10-09T11:04:32.072Z,52
2022-10-09T11:05:32.018Z,52
2022-10-09T11:06:32.122Z,52
2022-10-09T11:07:32.229Z,52
2022-10-09T11:08:32.097Z,51
2022-10-09T11:09:32.038Z,51
2022-10-09T11:10:32.058Z,51
2022-10-09T11:11:32.075Z,51
2022-10-09T11:12:47.267Z,51
2022-10-09T11:13:32.118Z,51
2022-10-09T11:14:32.055Z,52
2022-10-09T11:15:32.058Z,52
2022-10-09T11:16:32.115Z,52
2022-10-09T11:17:32.070Z,52
2022-10-09T11:18:32.068Z,52
2022-10-09T11:19:32.523Z,52
2022-10-09T11:20:32.045Z,51
2022-10-09T11:21:32.066Z,51
2022-10-09T11:22:32.039Z,52
2022-10-09T11:23:32.042Z,52
2022-10-09T11:24:32.074Z,52
2022-10-09T11:25:32.023Z,52
2022-10-09T11:26:32.047Z,51
2022-10-09T11:27:32.052Z,51
2022-10-09T11:28:32.159Z,50
2022-10-09T11:29:32.023Z,51
2022-10-09T11:30:32.118Z,51
2022-10-09T11:31:32.092Z,51
2022-10-09T11:32:32.119Z,51
2022-10-09T11:33:32.035Z,51
2022-10-09T11:34:32.080Z,51
2022-10-09T11:35:32.060Z,51
2022-10-09T11:36:32.056Z,50
2022-10-09T11:37:32.038Z,51
2022-10-09T11:38:32.056Z,50
2022-10-09T11:39:32.033Z,50
2022-10-09T11:40:32.069Z,50
2022-10-09T11:41:32.037Z,50
2022-10-09T11:42:32.097Z,50
2022-10-09T11:43:32.043Z,50
2022-10-09T11:44:32.044Z,50
2022-10-09T11:45:32.078Z,50
2022-10-09T11:46:32.087Z,50
2022-10-09T11:47:32.058Z,50
2022-10-09T11:48:32.061Z,50
2022-10-09T11:49:32.106Z,50
2022-10-09T11:50:32.058Z,50
2022-10-09T11:51:32.039Z,50
2022-10-09T11:52:32.071Z,49
2022-10-09T11:53:32.055Z,49
2022-10-09T11:54:32.066Z,49
2022-10-09T11:55:32.089Z,48
2022-10-09T11:56:32.135Z,49
2022-10-09T11:57:32.051Z,49
2022-10-09T11:58:32.060Z,49
2022-10-09T11:59:32.182Z,49
2022-10-09T12:00:32.043Z,47
2022-10-09T12:01:32.135Z,48
2022-10-09T12:02:32.140Z,48
2022-10-09T12:03:32.023Z,47
2022-10-09T12:04:53.473Z,47
2022-10-09T12:05:32.331Z,47
2022-10-09T12:06:32.039Z,47
2022-10-09T12:07:32.097Z,46
2022-10-09T12:08:32.078Z,46
2022-10-09T12:09:32.055Z,47
2022-10-09T12:10:32.121Z,46
2022-10-09T12:11:32.044Z,46
2022-10-09T12:12:32.031Z,46
2022-10-09T12:13:32.080Z,46
2022-10-09T12:14:32.040Z,47
2022-10-09T12:15:32.017Z,46
2022-10-09T12:16:32.101Z,46
2022-10-09T12:17:32.030Z,46
2022-10-09T12:18:32.068Z,46
2022-10-09T12:19:32.023Z,46
2022-10-09T12:20:32.041Z,46
2022-10-09T12:21:32.040Z,46
2022-10-09T12:22:32.056Z,46
2022-10-09T12:23:32.290Z,46
2022-10-09T12:24:32.035Z,46
2022-10-09T12:25:32.040Z,46
2022-10-09T12:26:32.068Z,46
2022-10-09T12:27:32.022Z,45
2022-10-09T12:28:32.117Z,46
2022-10-09T12:29:32.076Z,45
2022-10-09T12:30:32.196Z,45
2022-10-09T12:31:32.224Z,45
2022-10-09T12:32:32.046Z,44
2022-10-09T12:33:32.105Z,45
2022-10-09T12:34:32.073Z,45
2022-10-09T12:35:32.038Z,45
2022-10-09T12:36:32.053Z,45
2022-10-09T12:37:32.058Z,46
2022-10-09T12:38:32.028Z,46
2022-10-09T12:39:32.007Z,47
2022-10-09T12:40:32.030Z,47
2022-10-09T12:41:32.126Z,46
2022-10-09T12:42:32.095Z,46
2022-10-09T12:43:32.031Z,46
2022-10-09T12:44:32.050Z,46
2022-10-09T12:45:32.058Z,47
2022-10-09T12:46:32.071Z,46
2022-10-09T12:47:32.017Z,46
2022-10-09T12:48:32.057Z,47
2022-10-09T12:49:32.050Z,46
2022-10-09T12:50:32.048Z,46
2022-10-09T12:51:32.004Z,46
2022-10-09T12:52:32.060Z,46
2022-10-09T12:53:32.029Z,46
2022-10-09T12:54:32.054Z,46
2022-10-09T12:55:32.040Z,46
2022-10-09T12:56:32.086Z,45
2022-10-09T12:57:32.065Z,45
2022-10-09T12:58:32.050Z,45
2022-10-09T12:59:32.021Z,46
2022-10-09T13:00:32.369Z,46
2022-10-09T13:01:32.365Z,46
2022-10-09T13:02:32.204Z,46
2022-10-09T13:03:32.059Z,45
2022-10-09T13:04:32.179Z,45
2022-10-09T13:05:32.042Z,45
2022-10-09T13:06:32.049Z,46
2022-10-09T13:07:32.017Z,45
2022-10-09T13:08:32.060Z,45
2022-10-09T13:09:32.064Z,45
2022-10-09T13:10:32.047Z,44
2022-10-09T13:11:32.020Z,45
2022-10-09T13:12:32.050Z,45
2022-10-09T13:13:32.055Z,46
2022-10-09T13:14:32.056Z,46
2022-10-09T13:15:32.081Z,46
2022-10-09T13:16:32.157Z,47
2022-10-09T13:18:32.042Z,47
2022-10-09T13:19:32.010Z,47
2022-10-09T13:20:32.477Z,47
2022-10-09T13:21:34.441Z,48
2022-10-09T13:22:35.074Z,48
2022-10-09T13:23:32.011Z,48
2022-10-09T13:24:32.109Z,47
2022-10-09T13:25:32.035Z,47
2022-10-09T13:26:32.045Z,47
2022-10-09T13:27:32.037Z,48
2022-10-09T13:28:32.092Z,47
2022-10-09T13:29:32.128Z,47
2022-10-09T13:30:32.066Z,47
2022-10-09T13:31:32.026Z,47
2022-10-09T13:32:32.045Z,48
2022-10-09T13:33:32.048Z,47
2022-10-09T13:34:32.033Z,47
2022-10-09T13:35:32.157Z,48
2022-10-09T13:36:32.035Z,48
2022-10-09T13:37:32.111Z,48
2022-10-09T13:38:34.982Z,48
2022-10-09T13:39:32.015Z,48
2022-10-09T13:40:32.040Z,48
2022-10-09T13:41:32.033Z,48
2022-10-09T13:42:32.028Z,47
2022-10-09T13:43:32.016Z,47
2022-10-09T13:44:32.046Z,47
2022-10-09T13:45:32.055Z,47
2022-10-09T13:46:32.169Z,47
2022-10-09T13:47:32.028Z,47
2022-10-09T13:48:32.067Z,47
2022-10-09T13:49:32.028Z,48
2022-10-09T13:50:32.220Z,48
2022-10-09T13:51:32.023Z,48
2022-10-09T13:52:32.087Z,48
2022-10-09T13:53:32.048Z,48
2022-10-09T13:54:32.060Z,48
2022-10-09T13:55:32.058Z,48
2022-10-09T13:56:32.031Z,48
2022-10-09T13:57:32.071Z,48
2022-10-09T13:58:32.065Z,48
2022-10-09T13:59:32.092Z,48
2022-10-09T14:00:32.042Z,48
2022-10-09T14:01:32.094Z,48
2022-10-09T14:02:32.039Z,48
2022-10-09T14:03:32.039Z,48
2022-10-09T14:04:31.995Z,48
2022-10-09T14:05:32.042Z,48
2022-10-09T14:06:32.036Z,48
2022-10-09T14:07:32.041Z,48
2022-10-09T14:08:32.013Z,49
2022-10-09T14:09:32.093Z,48
2022-10-09T14:10:32.029Z,49
2022-10-09T14:11:32.031Z,49
2022-10-09T14:12:31.977Z,49
2022-10-09T14:13:32.036Z,50
2022-10-09T14:14:32.009Z,49
2022-10-09T14:15:32.038Z,50
2022-10-09T14:16:32.005Z,50
2022-10-09T14:17:32.061Z,50
2022-10-09T14:18:32.139Z,50
2022-10-09T14:19:32.039Z,49